sensor_id;sensor_type;location;lat;lon;timestamp;temperature;humidity
13326;DHT22;6732;51.044;3.746;2023-04-03T00:01:02;6.20;81.40
13326;DHT22;6732;51.044;3.746;2023-04-03T00:03:29;6.20;81.40
13326;DHT22;6732;51.044;3.746;2023-04-03T00:05:55;6.30;81.30
13326;DHT22;6732;51.044;3.746;2023-04-03T00:08:21;6.20;81.30
13326;DHT22;6732;51.044;3.746;2023-04-03T00:10:47;6.20;81.30
13326;DHT22;6732;51.044;3.746;2023-04-03T00:13:14;6.20;81.50
13326;DHT22;6732;51.044;3.746;2023-04-03T00:15:40;6.20;81.40
13326;DHT22;6732;51.044;3.746;2023-04-03T00:18:07;6.20;81.30
13326;DHT22;6732;51.044;3.746;2023-04-03T00:20:33;6.20;81.40
13326;DHT22;6732;51.044;3.746;2023-04-03T00:23:00;6.10;81.40
13326;DHT22;6732;51.044;3.746;2023-04-03T00:25:26;6.20;81.30
13326;DHT22;6732;51.044;3.746;2023-04-03T00:27:52;6.10;81.30
13326;DHT22;6732;51.044;3.746;2023-04-03T00:30:20;6.10;81.30
13326;DHT22;6732;51.044;3.746;2023-04-03T00:32:48;6.10;81.20
13326;DHT22;6732;51.044;3.746;2023-04-03T00:35:14;6.10;81.20
13326;DHT22;6732;51.044;3.746;2023-04-03T00:37:42;6.10;81.10
13326;DHT22;6732;51.044;3.746;2023-04-03T00:40:09;6.10;81.00
13326;DHT22;6732;51.044;3.746;2023-04-03T00:42:40;6.10;81.10
13326;DHT22;6732;51.044;3.746;2023-04-03T00:45:24;6.10;81.10
13326;DHT22;6732;51.044;3.746;2023-04-03T00:47:50;6.00;81.10
13326;DHT22;6732;51.044;3.746;2023-04-03T00:50:17;6.00;81.00
13326;DHT22;6732;51.044;3.746;2023-04-03T00:52:43;6.00;81.10
13326;DHT22;6732;51.044;3.746;2023-04-03T00:55:12;6.00;80.90
13326;DHT22;6732;51.044;3.746;2023-04-03T00:57:40;6.00;80.90
13326;DHT22;6732;51.044;3.746;2023-04-03T01:00:09;6.00;80.70
13326;DHT22;6732;51.044;3.746;2023-04-03T01:02:36;6.00;80.70
13326;DHT22;6732;51.044;3.746;2023-04-03T01:05:02;6.00;80.70
13326;DHT22;6732;51.044;3.746;2023-04-03T01:07:30;5.90;80.90
13326;DHT22;6732;51.044;3.746;2023-04-03T01:09:59;5.90;80.80
13326;DHT22;6732;51.044;3.746;2023-04-03T01:12:34;5.90;80.60
13326;DHT22;6732;51.044;3.746;2023-04-03T01:15:09;5.90;80.60
13326;DHT22;6732;51.044;3.746;2023-04-03T01:17:37;5.90;80.70
13326;DHT22;6732;51.044;3.746;2023-04-03T01:25:15;5.90;80.60
13326;DHT22;6732;51.044;3.746;2023-04-03T01:27:41;5.90;80.60
13326;DHT22;6732;51.044;3.746;2023-04-03T01:30:08;5.90;80.40
13326;DHT22;6732;51.044;3.746;2023-04-03T01:32:34;5.90;80.40
13326;DHT22;6732;51.044;3.746;2023-04-03T01:35:00;5.80;80.40
13326;DHT22;6732;51.044;3.746;2023-04-03T01:37:26;5.80;80.40
13326;DHT22;6732;51.044;3.746;2023-04-03T01:39:52;5.80;80.40
13326;DHT22;6732;51.044;3.746;2023-04-03T01:42:18;5.80;80.30
13326;DHT22;6732;51.044;3.746;2023-04-03T01:44:43;5.90;80.00
13326;DHT22;6732;51.044;3.746;2023-04-03T01:47:11;5.80;80.20
13326;DHT22;6732;51.044;3.746;2023-04-03T01:49:37;5.80;80.00
13326;DHT22;6732;51.044;3.746;2023-04-03T01:52:03;5.70;80.40
13326;DHT22;6732;51.044;3.746;2023-04-03T01:54:29;5.80;80.40
13326;DHT22;6732;51.044;3.746;2023-04-03T01:56:55;5.70;80.30
13326;DHT22;6732;51.044;3.746;2023-04-03T01:59:21;5.70;80.40
13326;DHT22;6732;51.044;3.746;2023-04-03T02:01:47;5.80;80.30
13326;DHT22;6732;51.044;3.746;2023-04-03T02:04:13;5.70;80.40
13326;DHT22;6732;51.044;3.746;2023-04-03T02:06:39;5.70;80.50
13326;DHT22;6732;51.044;3.746;2023-04-03T02:09:05;5.70;80.50
13326;DHT22;6732;51.044;3.746;2023-04-03T02:11:31;5.70;80.30
13326;DHT22;6732;51.044;3.746;2023-04-03T02:13:56;5.70;80.40
13326;DHT22;6732;51.044;3.746;2023-04-03T02:16:22;5.70;80.30
13326;DHT22;6732;51.044;3.746;2023-04-03T02:18:48;5.60;80.40
13326;DHT22;6732;51.044;3.746;2023-04-03T02:21:15;5.60;80.40
13326;DHT22;6732;51.044;3.746;2023-04-03T02:23:41;5.60;80.20
13326;DHT22;6732;51.044;3.746;2023-04-03T02:26:13;5.60;80.30
13326;DHT22;6732;51.044;3.746;2023-04-03T02:28:39;5.60;80.40
13326;DHT22;6732;51.044;3.746;2023-04-03T02:31:07;5.60;80.30
13326;DHT22;6732;51.044;3.746;2023-04-03T02:33:33;5.60;80.20
13326;DHT22;6732;51.044;3.746;2023-04-03T02:36:02;5.60;80.10
13326;DHT22;6732;51.044;3.746;2023-04-03T02:38:28;5.60;80.30
13326;DHT22;6732;51.044;3.746;2023-04-03T02:40:59;5.50;80.30
13326;DHT22;6732;51.044;3.746;2023-04-03T02:43:25;5.50;80.20
13326;DHT22;6732;51.044;3.746;2023-04-03T02:45:50;5.50;80.30
13326;DHT22;6732;51.044;3.746;2023-04-03T02:48:16;5.50;80.20
13326;DHT22;6732;51.044;3.746;2023-04-03T02:50:42;5.50;80.10
13326;DHT22;6732;51.044;3.746;2023-04-03T02:53:08;5.50;80.10
13326;DHT22;6732;51.044;3.746;2023-04-03T02:55:34;5.50;79.90
13326;DHT22;6732;51.044;3.746;2023-04-03T02:57:59;5.50;80.00
13326;DHT22;6732;51.044;3.746;2023-04-03T03:00:25;5.40;79.90
13326;DHT22;6732;51.044;3.746;2023-04-03T03:02:51;5.50;79.90
13326;DHT22;6732;51.044;3.746;2023-04-03T03:05:17;5.40;79.90
13326;DHT22;6732;51.044;3.746;2023-04-03T03:07:43;5.40;79.90
13326;DHT22;6732;51.044;3.746;2023-04-03T03:10:09;5.40;79.90
13326;DHT22;6732;51.044;3.746;2023-04-03T03:12:35;5.40;79.90
13326;DHT22;6732;51.044;3.746;2023-04-03T03:15:01;5.40;79.90
13326;DHT22;6732;51.044;3.746;2023-04-03T03:17:27;5.40;79.80
13326;DHT22;6732;51.044;3.746;2023-04-03T03:19:53;5.40;79.80
13326;DHT22;6732;51.044;3.746;2023-04-03T03:22:19;5.40;80.00
13326;DHT22;6732;51.044;3.746;2023-04-03T03:24:45;5.30;80.00
13326;DHT22;6732;51.044;3.746;2023-04-03T03:27:11;5.30;79.90
13326;DHT22;6732;51.044;3.746;2023-04-03T03:29:38;5.30;79.90
13326;DHT22;6732;51.044;3.746;2023-04-03T03:32:04;5.30;79.90
13326;DHT22;6732;51.044;3.746;2023-04-03T03:34:30;5.30;79.70
13326;DHT22;6732;51.044;3.746;2023-04-03T03:36:55;5.30;79.80
13326;DHT22;6732;51.044;3.746;2023-04-03T03:39:21;5.30;79.80
13326;DHT22;6732;51.044;3.746;2023-04-03T03:41:47;5.20;79.90
13326;DHT22;6732;51.044;3.746;2023-04-03T03:44:15;5.20;79.80
13326;DHT22;6732;51.044;3.746;2023-04-03T03:46:41;5.20;79.60
13326;DHT22;6732;51.044;3.746;2023-04-03T03:49:06;5.20;79.60
13326;DHT22;6732;51.044;3.746;2023-04-03T03:51:32;5.20;79.60
13326;DHT22;6732;51.044;3.746;2023-04-03T03:53:58;5.20;79.70
13326;DHT22;6732;51.044;3.746;2023-04-03T03:56:24;5.20;79.70
13326;DHT22;6732;51.044;3.746;2023-04-03T03:58:51;5.20;79.70
13326;DHT22;6732;51.044;3.746;2023-04-03T04:01:16;5.20;79.60
13326;DHT22;6732;51.044;3.746;2023-04-03T04:03:42;5.20;79.60
13326;DHT22;6732;51.044;3.746;2023-04-03T04:06:08;5.20;79.60
13326;DHT22;6732;51.044;3.746;2023-04-03T04:08:34;5.20;79.60
13326;DHT22;6732;51.044;3.746;2023-04-03T04:11:00;5.10;79.60
13326;DHT22;6732;51.044;3.746;2023-04-03T04:13:26;5.10;79.60
13326;DHT22;6732;51.044;3.746;2023-04-03T04:15:52;5.20;79.00
13326;DHT22;6732;51.044;3.746;2023-04-03T04:18:18;5.10;79.20
13326;DHT22;6732;51.044;3.746;2023-04-03T04:20:46;5.20;79.30
13326;DHT22;6732;51.044;3.746;2023-04-03T04:23:12;5.10;79.40
13326;DHT22;6732;51.044;3.746;2023-04-03T04:25:37;5.10;79.50
13326;DHT22;6732;51.044;3.746;2023-04-03T04:28:03;5.10;79.50
13326;DHT22;6732;51.044;3.746;2023-04-03T04:30:29;5.10;79.40
13326;DHT22;6732;51.044;3.746;2023-04-03T04:32:55;5.10;79.40
13326;DHT22;6732;51.044;3.746;2023-04-03T04:35:21;5.10;79.30
13326;DHT22;6732;51.044;3.746;2023-04-03T04:37:47;5.10;79.40
13326;DHT22;6732;51.044;3.746;2023-04-03T04:40:13;5.00;79.50
13326;DHT22;6732;51.044;3.746;2023-04-03T04:42:39;5.00;79.50
13326;DHT22;6732;51.044;3.746;2023-04-03T04:45:06;5.00;79.30
13326;DHT22;6732;51.044;3.746;2023-04-03T04:47:32;5.00;79.30
13326;DHT22;6732;51.044;3.746;2023-04-03T04:49:58;5.00;79.20
13326;DHT22;6732;51.044;3.746;2023-04-03T04:52:24;4.90;79.10
13326;DHT22;6732;51.044;3.746;2023-04-03T04:54:50;4.90;79.30
13326;DHT22;6732;51.044;3.746;2023-04-03T04:57:16;4.90;79.40
13326;DHT22;6732;51.044;3.746;2023-04-03T04:59:42;4.90;79.30
13326;DHT22;6732;51.044;3.746;2023-04-03T05:02:08;4.90;79.40
13326;DHT22;6732;51.044;3.746;2023-04-03T05:04:34;4.90;79.40
13326;DHT22;6732;51.044;3.746;2023-04-03T05:07:00;4.80;79.60
13326;DHT22;6732;51.044;3.746;2023-04-03T05:09:26;4.80;79.50
13326;DHT22;6732;51.044;3.746;2023-04-03T05:11:52;4.90;79.50
13326;DHT22;6732;51.044;3.746;2023-04-03T05:14:18;4.90;79.30
13326;DHT22;6732;51.044;3.746;2023-04-03T05:16:44;4.80;79.30
13326;DHT22;6732;51.044;3.746;2023-04-03T05:19:10;4.80;79.30
13326;DHT22;6732;51.044;3.746;2023-04-03T05:21:36;4.80;79.30
13326;DHT22;6732;51.044;3.746;2023-04-03T05:24:02;4.80;79.40
13326;DHT22;6732;51.044;3.746;2023-04-03T05:26:31;4.80;79.30
13326;DHT22;6732;51.044;3.746;2023-04-03T05:28:58;4.80;79.30
13326;DHT22;6732;51.044;3.746;2023-04-03T05:31:23;4.80;79.50
13326;DHT22;6732;51.044;3.746;2023-04-03T05:33:50;4.80;79.50
13326;DHT22;6732;51.044;3.746;2023-04-03T05:36:15;4.70;79.60
13326;DHT22;6732;51.044;3.746;2023-04-03T05:38:41;4.80;79.40
13326;DHT22;6732;51.044;3.746;2023-04-03T05:41:07;4.80;79.50
13326;DHT22;6732;51.044;3.746;2023-04-03T05:43:33;4.70;79.70
13326;DHT22;6732;51.044;3.746;2023-04-03T05:46:00;4.70;79.80
13326;DHT22;6732;51.044;3.746;2023-04-03T05:48:26;4.70;79.90
13326;DHT22;6732;51.044;3.746;2023-04-03T05:50:52;4.80;79.80
13326;DHT22;6732;51.044;3.746;2023-04-03T05:53:21;4.80;79.80
13326;DHT22;6732;51.044;3.746;2023-04-03T05:55:49;4.80;79.70
13326;DHT22;6732;51.044;3.746;2023-04-03T05:58:15;4.80;80.00
13326;DHT22;6732;51.044;3.746;2023-04-03T06:00:41;4.80;79.90
13326;DHT22;6732;51.044;3.746;2023-04-03T06:03:07;4.80;79.90
13326;DHT22;6732;51.044;3.746;2023-04-03T06:05:33;4.90;79.90
13326;DHT22;6732;51.044;3.746;2023-04-03T06:07:59;4.80;80.10
13326;DHT22;6732;51.044;3.746;2023-04-03T06:10:25;4.80;80.10
13326;DHT22;6732;51.044;3.746;2023-04-03T06:12:51;4.90;80.20
13326;DHT22;6732;51.044;3.746;2023-04-03T06:15:17;4.80;80.30
13326;DHT22;6732;51.044;3.746;2023-04-03T06:17:43;4.90;80.20
13326;DHT22;6732;51.044;3.746;2023-04-03T06:20:09;4.90;80.40
13326;DHT22;6732;51.044;3.746;2023-04-03T06:22:35;4.90;80.40
13326;DHT22;6732;51.044;3.746;2023-04-03T06:25:02;4.90;79.60
13326;DHT22;6732;51.044;3.746;2023-04-03T06:27:28;4.80;79.60
13326;DHT22;6732;51.044;3.746;2023-04-03T06:29:54;4.90;79.20
13326;DHT22;6732;51.044;3.746;2023-04-03T06:32:20;4.80;79.20
13326;DHT22;6732;51.044;3.746;2023-04-03T06:34:46;4.70;79.70
13326;DHT22;6732;51.044;3.746;2023-04-03T06:37:20;4.70;80.10
13326;DHT22;6732;51.044;3.746;2023-04-03T06:39:46;4.50;79.50
13326;DHT22;6732;51.044;3.746;2023-04-03T06:42:12;4.50;79.90
13326;DHT22;6732;51.044;3.746;2023-04-03T06:44:39;4.50;80.40
13326;DHT22;6732;51.044;3.746;2023-04-03T06:47:05;4.60;80.70
13326;DHT22;6732;51.044;3.746;2023-04-03T06:49:31;4.60;80.80
13326;DHT22;6732;51.044;3.746;2023-04-03T06:51:57;4.60;81.10
13326;DHT22;6732;51.044;3.746;2023-04-03T06:54:23;4.70;81.30
13326;DHT22;6732;51.044;3.746;2023-04-03T06:56:49;4.70;81.50
13326;DHT22;6732;51.044;3.746;2023-04-03T06:59:16;4.70;81.30
13326;DHT22;6732;51.044;3.746;2023-04-03T07:01:42;4.60;81.80
13326;DHT22;6732;51.044;3.746;2023-04-03T07:04:08;4.70;82.00
13326;DHT22;6732;51.044;3.746;2023-04-03T07:06:34;4.80;82.30
13326;DHT22;6732;51.044;3.746;2023-04-03T07:09:01;4.90;82.00
13326;DHT22;6732;51.044;3.746;2023-04-03T07:11:27;4.90;81.80
13326;DHT22;6732;51.044;3.746;2023-04-03T07:13:53;4.90;81.50
13326;DHT22;6732;51.044;3.746;2023-04-03T07:16:20;4.90;80.40
13326;DHT22;6732;51.044;3.746;2023-04-03T07:18:46;5.00;80.60
13326;DHT22;6732;51.044;3.746;2023-04-03T07:21:12;5.10;80.90
13326;DHT22;6732;51.044;3.746;2023-04-03T07:23:39;5.10;80.30
13326;DHT22;6732;51.044;3.746;2023-04-03T07:26:05;5.30;77.60
13326;DHT22;6732;51.044;3.746;2023-04-03T07:28:32;5.30;78.10
13326;DHT22;6732;51.044;3.746;2023-04-03T07:31:04;5.30;78.50
13326;DHT22;6732;51.044;3.746;2023-04-03T07:33:32;5.40;77.90
13326;DHT22;6732;51.044;3.746;2023-04-03T07:35:58;5.40;78.20
13326;DHT22;6732;51.044;3.746;2023-04-03T07:38:24;5.50;77.70
13326;DHT22;6732;51.044;3.746;2023-04-03T07:40:51;5.60;77.60
13326;DHT22;6732;51.044;3.746;2023-04-03T07:43:19;5.60;77.30
13326;DHT22;6732;51.044;3.746;2023-04-03T07:45:46;5.70;77.80
13326;DHT22;6732;51.044;3.746;2023-04-03T07:48:20;5.80;77.40
13326;DHT22;6732;51.044;3.746;2023-04-03T07:50:46;5.70;75.80
13326;DHT22;6732;51.044;3.746;2023-04-03T07:53:12;5.80;76.50
13326;DHT22;6732;51.044;3.746;2023-04-03T07:55:38;5.90;76.10
13326;DHT22;6732;51.044;3.746;2023-04-03T07:58:14;6.10;76.10
13326;DHT22;6732;51.044;3.746;2023-04-03T08:00:41;6.00;75.20
13326;DHT22;6732;51.044;3.746;2023-04-03T08:03:09;6.10;76.20
13326;DHT22;6732;51.044;3.746;2023-04-03T08:05:40;6.20;75.50
13326;DHT22;6732;51.044;3.746;2023-04-03T08:08:07;6.30;74.70
13326;DHT22;6732;51.044;3.746;2023-04-03T08:10:34;6.30;75.40
13326;DHT22;6732;51.044;3.746;2023-04-03T08:13:01;6.40;75.00
13326;DHT22;6732;51.044;3.746;2023-04-03T08:15:27;6.50;74.10
13326;DHT22;6732;51.044;3.746;2023-04-03T08:17:54;6.50;73.80
13326;DHT22;6732;51.044;3.746;2023-04-03T08:20:20;6.60;73.90
13326;DHT22;6732;51.044;3.746;2023-04-03T08:22:46;6.70;73.20
13326;DHT22;6732;51.044;3.746;2023-04-03T08:25:12;6.80;73.00
13326;DHT22;6732;51.044;3.746;2023-04-03T08:27:39;6.80;72.20
13326;DHT22;6732;51.044;3.746;2023-04-03T08:30:05;6.80;71.90
13326;DHT22;6732;51.044;3.746;2023-04-03T08:32:33;6.90;71.70
13326;DHT22;6732;51.044;3.746;2023-04-03T08:35:00;7.00;71.30
13326;DHT22;6732;51.044;3.746;2023-04-03T08:37:26;7.00;71.10
13326;DHT22;6732;51.044;3.746;2023-04-03T08:39:53;7.10;70.90
13326;DHT22;6732;51.044;3.746;2023-04-03T08:45:13;7.20;69.40
13326;DHT22;6732;51.044;3.746;2023-04-03T08:50:33;7.40;66.40
13326;DHT22;6732;51.044;3.746;2023-04-03T08:53:01;7.50;66.10
13326;DHT22;6732;51.044;3.746;2023-04-03T08:55:48;7.60;66.40
13326;DHT22;6732;51.044;3.746;2023-04-03T08:58:19;7.70;64.00
13326;DHT22;6732;51.044;3.746;2023-04-03T09:01:05;7.70;64.60
13326;DHT22;6732;51.044;3.746;2023-04-03T09:03:34;7.80;63.30
13326;DHT22;6732;51.044;3.746;2023-04-03T09:06:14;7.80;62.30
13326;DHT22;6732;51.044;3.746;2023-04-03T09:09:00;7.90;62.50
13326;DHT22;6732;51.044;3.746;2023-04-03T09:11:52;8.00;63.30
13326;DHT22;6732;51.044;3.746;2023-04-03T09:14:26;8.10;63.20
13326;DHT22;6732;51.044;3.746;2023-04-03T09:19:58;8.40;62.80
13326;DHT22;6732;51.044;3.746;2023-04-03T09:22:32;8.50;63.30
13326;DHT22;6732;51.044;3.746;2023-04-03T09:25:04;8.60;62.10
13326;DHT22;6732;51.044;3.746;2023-04-03T09:27:31;8.60;60.50
13326;DHT22;6732;51.044;3.746;2023-04-03T09:29:58;8.70;59.30
13326;DHT22;6732;51.044;3.746;2023-04-03T09:32:32;8.60;59.50
13326;DHT22;6732;51.044;3.746;2023-04-03T09:35:04;8.70;60.50
13326;DHT22;6732;51.044;3.746;2023-04-03T09:37:41;8.80;60.00
13326;DHT22;6732;51.044;3.746;2023-04-03T09:40:30;8.90;58.00
13326;DHT22;6732;51.044;3.746;2023-04-03T09:43:01;8.90;56.80
13326;DHT22;6732;51.044;3.746;2023-04-03T09:45:34;9.00;56.70
13326;DHT22;6732;51.044;3.746;2023-04-03T10:04:08;9.00;57.30
13326;DHT22;6732;51.044;3.746;2023-04-03T10:06:38;9.10;57.00
13326;DHT22;6732;51.044;3.746;2023-04-03T10:09:28;9.00;56.00
13326;DHT22;6732;51.044;3.746;2023-04-03T10:14:33;9.20;55.30
13326;DHT22;6732;51.044;3.746;2023-04-03T10:19:57;9.30;55.70
13326;DHT22;6732;51.044;3.746;2023-04-03T10:22:39;9.30;55.60
13326;DHT22;6732;51.044;3.746;2023-04-03T10:25:34;9.50;54.60
13326;DHT22;6732;51.044;3.746;2023-04-03T10:28:09;9.50;53.60
13326;DHT22;6732;51.044;3.746;2023-04-03T10:47:19;9.80;51.80
13326;DHT22;6732;51.044;3.746;2023-04-03T10:52:35;9.90;50.70
13326;DHT22;6732;51.044;3.746;2023-04-03T10:55:20;9.90;50.90
13326;DHT22;6732;51.044;3.746;2023-04-03T10:57:49;9.90;51.70
13326;DHT22;6732;51.044;3.746;2023-04-03T11:00:22;10.00;50.70
13326;DHT22;6732;51.044;3.746;2023-04-03T11:03:03;10.00;50.80
13326;DHT22;6732;51.044;3.746;2023-04-03T11:05:36;10.10;50.30
13326;DHT22;6732;51.044;3.746;2023-04-03T11:08:21;10.20;51.80
13326;DHT22;6732;51.044;3.746;2023-04-03T11:10:50;10.20;51.40
13326;DHT22;6732;51.044;3.746;2023-04-03T11:13:37;10.10;51.00
13326;DHT22;6732;51.044;3.746;2023-04-03T11:16:04;10.20;49.30
13326;DHT22;6732;51.044;3.746;2023-04-03T11:18:49;10.20;46.80
13326;DHT22;6732;51.044;3.746;2023-04-03T11:21:41;10.30;48.70
13326;DHT22;6732;51.044;3.746;2023-04-03T11:24:17;10.50;48.70
13326;DHT22;6732;51.044;3.746;2023-04-03T11:26:47;10.50;48.30
13326;DHT22;6732;51.044;3.746;2023-04-03T11:29:19;10.60;48.60
13326;DHT22;6732;51.044;3.746;2023-04-03T11:34:47;10.50;47.10
13326;DHT22;6732;51.044;3.746;2023-04-03T11:37:35;10.50;45.10
13326;DHT22;6732;51.044;3.746;2023-04-03T11:40:24;10.40;44.30
13326;DHT22;6732;51.044;3.746;2023-04-03T11:45:31;10.50;43.80
13326;DHT22;6732;51.044;3.746;2023-04-03T11:48:04;10.60;44.40
13326;DHT22;6732;51.044;3.746;2023-04-03T11:53:29;10.70;45.10
13326;DHT22;6732;51.044;3.746;2023-04-03T11:55:58;10.70;44.60
13326;DHT22;6732;51.044;3.746;2023-04-03T11:58:33;10.80;43.00
13326;DHT22;6732;51.044;3.746;2023-04-03T12:01:06;10.80;43.60
13326;DHT22;6732;51.044;3.746;2023-04-03T12:03:55;10.70;42.50
13326;DHT22;6732;51.044;3.746;2023-04-03T12:12:01;10.90;43.10
13326;DHT22;6732;51.044;3.746;2023-04-03T12:14:47;11.00;43.20
13326;DHT22;6732;51.044;3.746;2023-04-03T12:17:27;11.10;42.10
13326;DHT22;6732;51.044;3.746;2023-04-03T12:19:53;11.10;42.30
13326;DHT22;6732;51.044;3.746;2023-04-03T12:22:20;11.10;41.90
13326;DHT22;6732;51.044;3.746;2023-04-03T12:24:51;11.00;43.10
13326;DHT22;6732;51.044;3.746;2023-04-03T12:27:23;11.00;42.40
13326;DHT22;6732;51.044;3.746;2023-04-03T12:32:49;11.10;41.70
13326;DHT22;6732;51.044;3.746;2023-04-03T12:35:21;11.00;42.20
13326;DHT22;6732;51.044;3.746;2023-04-03T12:44:09;11.00;44.20
13326;DHT22;6732;51.044;3.746;2023-04-03T12:46:43;11.10;39.50
13326;DHT22;6732;51.044;3.746;2023-04-03T12:49:35;11.00;41.10
13326;DHT22;6732;51.044;3.746;2023-04-03T12:52:19;11.10;42.00
13326;DHT22;6732;51.044;3.746;2023-04-03T12:54:46;11.20;41.70
13326;DHT22;6732;51.044;3.746;2023-04-03T12:57:19;11.20;42.90
13326;DHT22;6732;51.044;3.746;2023-04-03T12:59:47;11.30;42.30
13326;DHT22;6732;51.044;3.746;2023-04-03T13:02:31;11.30;42.50
13326;DHT22;6732;51.044;3.746;2023-04-03T13:05:18;11.30;42.00
13326;DHT22;6732;51.044;3.746;2023-04-03T13:07:49;11.30;41.60
13326;DHT22;6732;51.044;3.746;2023-04-03T13:10:17;11.20;40.40
13326;DHT22;6732;51.044;3.746;2023-04-03T13:15:39;11.10;39.60
13326;DHT22;6732;51.044;3.746;2023-04-03T13:18:25;11.20;40.30
13326;DHT22;6732;51.044;3.746;2023-04-03T13:20:52;11.30;39.00
13326;DHT22;6732;51.044;3.746;2023-04-03T13:23:23;11.20;40.30
13326;DHT22;6732;51.044;3.746;2023-04-03T13:25:50;11.10;40.40
13326;DHT22;6732;51.044;3.746;2023-04-03T13:28:22;11.10;39.80
13326;DHT22;6732;51.044;3.746;2023-04-03T13:31:04;11.00;39.30
13326;DHT22;6732;51.044;3.746;2023-04-03T13:33:34;11.00;40.90
13326;DHT22;6732;51.044;3.746;2023-04-03T13:36:08;11.10;41.10
13326;DHT22;6732;51.044;3.746;2023-04-03T13:38:37;11.20;41.00
13326;DHT22;6732;51.044;3.746;2023-04-03T13:41:23;11.10;40.00
13326;DHT22;6732;51.044;3.746;2023-04-03T13:43:49;11.10;39.90
13326;DHT22;6732;51.044;3.746;2023-04-03T13:48:44;11.10;39.10
13326;DHT22;6732;51.044;3.746;2023-04-03T13:53:43;11.10;38.00
13326;DHT22;6732;51.044;3.746;2023-04-03T13:56:24;11.00;38.60
13326;DHT22;6732;51.044;3.746;2023-04-03T13:58:58;11.00;38.20
13326;DHT22;6732;51.044;3.746;2023-04-03T14:01:25;11.10;37.90
13326;DHT22;6732;51.044;3.746;2023-04-03T14:03:55;11.10;37.80
13326;DHT22;6732;51.044;3.746;2023-04-03T14:06:23;11.10;37.90
13326;DHT22;6732;51.044;3.746;2023-04-03T14:08:49;11.10;37.50
13326;DHT22;6732;51.044;3.746;2023-04-03T14:11:19;11.10;36.60
13326;DHT22;6732;51.044;3.746;2023-04-03T14:13:47;11.20;37.30
13326;DHT22;6732;51.044;3.746;2023-04-03T14:16:15;11.10;37.10
13326;DHT22;6732;51.044;3.746;2023-04-03T14:18:43;10.90;36.60
13326;DHT22;6732;51.044;3.746;2023-04-03T14:21:13;10.90;37.60
13326;DHT22;6732;51.044;3.746;2023-04-03T14:23:39;11.00;37.60
13326;DHT22;6732;51.044;3.746;2023-04-03T14:26:11;10.90;37.70
13326;DHT22;6732;51.044;3.746;2023-04-03T14:28:37;11.00;37.30
13326;DHT22;6732;51.044;3.746;2023-04-03T14:31:05;10.90;36.50
13326;DHT22;6732;51.044;3.746;2023-04-03T14:33:32;10.90;37.10
13326;DHT22;6732;51.044;3.746;2023-04-03T14:36:01;10.80;36.80
13326;DHT22;6732;51.044;3.746;2023-04-03T14:38:30;10.80;37.00
13326;DHT22;6732;51.044;3.746;2023-04-03T14:40:57;10.90;36.70
13326;DHT22;6732;51.044;3.746;2023-04-03T14:43:23;10.90;37.90
13326;DHT22;6732;51.044;3.746;2023-04-03T14:45:49;10.90;38.40
13326;DHT22;6732;51.044;3.746;2023-04-03T14:48:19;11.00;38.00
13326;DHT22;6732;51.044;3.746;2023-04-03T14:50:46;11.00;37.10
13326;DHT22;6732;51.044;3.746;2023-04-03T14:53:14;10.80;37.30
13326;DHT22;6732;51.044;3.746;2023-04-03T14:55:47;10.80;37.50
13326;DHT22;6732;51.044;3.746;2023-04-03T14:58:15;10.90;37.30
13326;DHT22;6732;51.044;3.746;2023-04-03T15:00:42;10.80;38.50
13326;DHT22;6732;51.044;3.746;2023-04-03T15:03:18;10.90;38.30
13326;DHT22;6732;51.044;3.746;2023-04-03T15:05:46;10.90;38.00
13326;DHT22;6732;51.044;3.746;2023-04-03T15:08:30;10.90;38.00
13326;DHT22;6732;51.044;3.746;2023-04-03T15:10:57;10.90;38.50
13326;DHT22;6732;51.044;3.746;2023-04-03T15:13:24;10.70;37.50
13326;DHT22;6732;51.044;3.746;2023-04-03T15:15:51;10.80;38.10
13326;DHT22;6732;51.044;3.746;2023-04-03T15:18:21;10.80;38.20
13326;DHT22;6732;51.044;3.746;2023-04-03T15:20:48;10.80;38.60
13326;DHT22;6732;51.044;3.746;2023-04-03T15:23:15;10.80;37.90
13326;DHT22;6732;51.044;3.746;2023-04-03T15:25:46;10.80;37.90
13326;DHT22;6732;51.044;3.746;2023-04-03T15:28:22;10.70;37.80
13326;DHT22;6732;51.044;3.746;2023-04-03T15:30:48;10.70;37.40
13326;DHT22;6732;51.044;3.746;2023-04-03T15:33:14;10.70;37.60
13326;DHT22;6732;51.044;3.746;2023-04-03T15:35:41;10.70;37.60
13326;DHT22;6732;51.044;3.746;2023-04-03T15:38:08;10.60;37.40
13326;DHT22;6732;51.044;3.746;2023-04-03T15:40:34;10.60;37.80
13326;DHT22;6732;51.044;3.746;2023-04-03T15:43:00;10.50;38.10
13326;DHT22;6732;51.044;3.746;2023-04-03T15:45:29;10.50;36.60
13326;DHT22;6732;51.044;3.746;2023-04-03T15:47:56;10.50;37.20
13326;DHT22;6732;51.044;3.746;2023-04-03T15:50:22;10.50;37.50
13326;DHT22;6732;51.044;3.746;2023-04-03T15:52:53;10.40;37.20
13326;DHT22;6732;51.044;3.746;2023-04-03T15:55:27;10.30;37.80
13326;DHT22;6732;51.044;3.746;2023-04-03T15:57:53;10.30;38.30
13326;DHT22;6732;51.044;3.746;2023-04-03T16:00:20;10.40;37.60
13326;DHT22;6732;51.044;3.746;2023-04-03T16:02:47;10.30;37.60
13326;DHT22;6732;51.044;3.746;2023-04-03T16:05:16;10.30;38.40
13326;DHT22;6732;51.044;3.746;2023-04-03T16:07:43;10.20;38.20
13326;DHT22;6732;51.044;3.746;2023-04-03T16:10:10;10.20;38.60
13326;DHT22;6732;51.044;3.746;2023-04-03T16:12:37;10.20;38.90
13326;DHT22;6732;51.044;3.746;2023-04-03T16:15:03;10.10;39.10
13326;DHT22;6732;51.044;3.746;2023-04-03T16:17:31;10.10;40.00
13326;DHT22;6732;51.044;3.746;2023-04-03T16:19:58;10.10;38.80
13326;DHT22;6732;51.044;3.746;2023-04-03T16:22:27;10.10;38.00
13326;DHT22;6732;51.044;3.746;2023-04-03T16:24:54;10.10;36.90
13326;DHT22;6732;51.044;3.746;2023-04-03T16:27:20;10.10;37.20
13326;DHT22;6732;51.044;3.746;2023-04-03T16:29:46;10.00;37.20
13326;DHT22;6732;51.044;3.746;2023-04-03T16:32:13;10.00;37.60
13326;DHT22;6732;51.044;3.746;2023-04-03T16:34:39;10.00;37.50
13326;DHT22;6732;51.044;3.746;2023-04-03T16:37:06;10.00;37.20
13326;DHT22;6732;51.044;3.746;2023-04-03T16:39:34;9.90;37.30
13326;DHT22;6732;51.044;3.746;2023-04-03T16:42:01;10.00;38.10
13326;DHT22;6732;51.044;3.746;2023-04-03T16:44:27;9.90;38.80
13326;DHT22;6732;51.044;3.746;2023-04-03T16:46:53;9.90;37.80
13326;DHT22;6732;51.044;3.746;2023-04-03T16:49:19;9.90;38.50
13326;DHT22;6732;51.044;3.746;2023-04-03T16:51:45;9.90;38.60
13326;DHT22;6732;51.044;3.746;2023-04-03T16:54:11;9.90;38.80
13326;DHT22;6732;51.044;3.746;2023-04-03T16:56:39;9.90;38.90
13326;DHT22;6732;51.044;3.746;2023-04-03T16:59:05;9.80;38.50
13326;DHT22;6732;51.044;3.746;2023-04-03T17:01:31;9.70;39.10
13326;DHT22;6732;51.044;3.746;2023-04-03T17:03:57;9.70;39.30
13326;DHT22;6732;51.044;3.746;2023-04-03T17:06:23;9.70;39.90
13326;DHT22;6732;51.044;3.746;2023-04-03T17:08:50;9.70;39.40
13326;DHT22;6732;51.044;3.746;2023-04-03T17:11:17;9.50;38.10
13326;DHT22;6732;51.044;3.746;2023-04-03T17:13:44;9.50;39.40
13326;DHT22;6732;51.044;3.746;2023-04-03T17:16:13;9.60;39.60
13326;DHT22;6732;51.044;3.746;2023-04-03T17:18:41;9.50;39.10
13326;DHT22;6732;51.044;3.746;2023-04-03T17:21:07;9.50;39.80
13326;DHT22;6732;51.044;3.746;2023-04-03T17:23:34;9.50;41.20
13326;DHT22;6732;51.044;3.746;2023-04-03T17:26:03;9.50;42.60
13326;DHT22;6732;51.044;3.746;2023-04-03T17:28:29;9.50;43.20
13326;DHT22;6732;51.044;3.746;2023-04-03T17:30:56;9.40;43.20
13326;DHT22;6732;51.044;3.746;2023-04-03T17:33:22;9.50;44.10